Terminal Aerodrome Forecast
Issued by NWS

Home | Current Version | Previous Version | Text Only | Print | Product List | Glossary On
Versions: 1 2 3 4 5 6 7 8 9 10 11 12 13 14 15 16 17 18 19 20 21 22
000
FTUS42 KMLB 302338
TAFTIX
TAF
KTIX 302338Z 0100/0124 13010KT P6SM SCT025
     FM010300 14010KT P6SM SCT020
     FM011300 16012KT P6SM SCT025 BKN250
     FM011800 16012KT P6SM SCT035 BKN250
      AMD NOT SKED 0101/0111=

USA.gov is the U.S. government's official web portal to all federal, state and local government web resources and services.